Magadan, Russia
Current Conditions -  °F | °C
As of 8:30 PM on Sunday 21 Dec 2014 (Local Time) from UHMM Reporting Station
Overcast Overcast  
Wind Chill: -26°   Ceiling: 10000
Heat Index: -26°   Visibility: 6mi
Dew Point: -31°   Wind: 0mph
Humidity: 76%   Direction: NA
Pressure: 29.8"   Gusts: NA
Location:  59.57°N, 150.8°E
Report Text: UHMM 210930Z 00000MPS 9999 OVC100 M32/M35 Q1009 NOSIG RMKQFE742 88920550
Loading
Personal Weather Stations






























Interactive Weather Map New forecast layout! Learn more

10-Day Weather Forecast

Advertisements
Track Severe Weather on mobile